Terminal Aerodrome Forecast
Issued by NWS Shreveport, LA

Home | Current Version | Previous Version | Text Only | Print | Product List | Glossary On
Versions: 1 2 3 4 5 6 7 8 9 10 11 12 13 14 15 16 17 18 19 20 21 22 23 24 25 26 27 28 29 30
542
FTUS44 KSHV 221740
TAFMLU
TAF
KMLU 221740Z 2218/2318 19008KT P6SM SCT070
     FM222100 18007KT P6SM SCT050 SCT070
     FM230100 17003KT P6SM SKC
     FM231500 22005KT P6SM SCT020=

USA.gov is the U.S. government's official web portal to all federal, state and local government web resources and services.